Time;durP1;ratioP1;P1;durP2;ratioP2;P2;SDS_P1;SDS_P2;PMS_P1;PMS_P2;Temp;Humidity;BMP_temperature;BMP_pressure;BME280_temperature;BME280_humidity;BME280_pressure;Samples;Min_cycle;Max_cycle;Signal;HPM_P1;HPM_P2
2021/03/05 00:00:55;;;;;;;9.00;6.93;;;8.30;99.90;;;;;;5012717;28;20396;-69
2021/03/05 00:03:21;;;;;;;9.87;7.23;;;8.40;99.90;;;;;;5011091;28;20769;-69
2021/03/05 00:05:46;;;;;;;9.45;7.13;;;8.20;99.90;;;;;;5012419;28;20408;-70
2021/03/05 00:08:13;;;;;;;11.32;7.00;;;8.70;99.90;;;;;;5012689;28;20416;-69
2021/03/05 00:10:41;;;;;;;9.63;6.80;;;8.00;99.90;;;;;;5011642;28;20435;-69
2021/03/05 00:13:07;;;;;;;12.50;7.65;;;9.30;99.90;;;;;;5012291;28;20388;-69
2021/03/05 00:15:35;;;;;;;10.85;7.10;;;8.10;99.90;;;;;;5011661;28;20381;-70
2021/03/05 00:18:01;;;;;;;10.85;7.13;;;8.00;99.90;;;;;;5011882;28;20910;-69
2021/03/05 00:20:30;;;;;;;8.55;7.22;;;7.80;99.90;;;;;;5011632;28;20388;-68
2021/03/05 00:22:57;;;;;;;11.60;8.20;;;8.50;99.90;;;;;;5012151;28;20484;-69
2021/03/05 00:25:22;;;;;;;9.70;7.45;;;8.00;99.90;;;;;;5011237;28;20727;-69
2021/03/05 00:27:48;;;;;;;9.93;6.97;;;8.20;99.90;;;;;;5012528;28;20415;-69
2021/03/05 00:30:15;;;;;;;13.02;8.20;;;8.50;99.90;;;;;;5011593;28;20478;-69
2021/03/05 00:32:42;;;;;;;9.05;6.70;;;8.00;99.90;;;;;;5011615;28;20482;-69
2021/03/05 00:35:09;;;;;;;13.50;7.40;;;8.80;99.90;;;;;;5012120;28;20389;-68
2021/03/05 00:37:36;;;;;;;10.80;7.65;;;8.00;99.90;;;;;;5011338;28;20774;-69
2021/03/05 00:40:04;;;;;;;8.60;6.53;;;8.10;99.90;;;;;;5012024;28;20384;-69
2021/03/05 00:42:29;;;;;;;11.35;7.20;;;8.30;99.90;;;;;;5010999;28;20861;-69
2021/03/05 00:44:55;;;;;;;10.38;7.18;;;7.90;99.90;;;;;;5011872;28;20424;-69
2021/03/05 00:47:20;;;;;;;8.90;7.35;;;9.70;99.90;;;;;;5011207;28;20440;-68
2021/03/05 00:49:46;;;;;;;7.50;6.80;;;8.10;99.90;;;;;;5011633;28;20393;-69
2021/03/05 00:52:12;;;;;;;10.70;6.68;;;8.30;99.90;;;;;;5011563;28;20389;-68
2021/03/05 00:54:37;;;;;;;7.38;6.40;;;8.50;99.90;;;;;;5011058;28;20471;-68
2021/03/05 00:57:03;;;;;;;9.40;6.90;;;10.00;99.90;;;;;;5011465;28;20401;-68
2021/03/05 00:59:29;;;;;;;11.25;6.63;;;8.50;99.90;;;;;;5011221;28;20408;-69
2021/03/05 01:01:54;;;;;;;11.05;8.18;;;10.00;99.90;;;;;;5011286;28;20429;-68
2021/03/05 01:04:20;;;;;;;12.63;8.90;;;9.20;99.90;;;;;;5011110;28;20421;-71
2021/03/05 01:06:46;;;;;;;13.05;9.23;;;8.10;99.90;;;;;;5010972;28;20400;-68
2021/03/05 01:09:11;;;;;;;10.90;8.35;;;8.50;99.90;;;;;;5011401;28;20424;-68
2021/03/05 01:11:37;;;;;;;13.35;9.05;;;9.20;99.90;;;;;;5010550;28;20817;-68
2021/03/05 01:14:03;;;;;;;12.15;8.35;;;8.50;99.90;;;;;;5011155;28;20407;-68
2021/03/05 01:16:28;;;;;;;13.07;9.10;;;8.50;99.90;;;;;;5012147;28;20392;-68
2021/03/05 01:18:56;;;;;;;13.80;9.43;;;8.60;99.90;;;;;;5011140;28;20373;-69
2021/03/05 01:21:22;;;;;;;13.75;9.57;;;8.30;99.90;;;;;;5010595;28;20396;-70
2021/03/05 01:23:47;;;;;;;12.15;9.00;;;9.90;99.90;;;;;;5011083;28;20417;-69
2021/03/05 01:26:13;;;;;;;13.80;9.85;;;9.20;99.90;;;;;;5011004;28;20381;-69
2021/03/05 01:28:40;;;;;;;11.50;8.50;;;8.30;99.90;;;;;;5010469;28;20866;-69
2021/03/05 01:31:07;;;;;;;10.90;8.82;;;8.50;99.90;;;;;;5011255;28;20380;-69
2021/03/05 01:33:33;;;;;;;14.47;10.43;;;9.30;99.90;;;;;;5010607;28;20686;-67
2021/03/05 01:35:59;;;;;;;12.43;9.45;;;9.20;99.90;;;;;;5010806;28;20407;-67
2021/03/05 01:38:24;;;;;;;11.50;9.18;;;10.10;99.90;;;;;;5010373;28;20380;-67
2021/03/05 01:40:50;;;;;;;11.48;8.65;;;8.50;99.90;;;;;;5010910;28;20381;-67
2021/03/05 01:43:17;;;;;;;13.85;9.90;;;8.60;99.90;;;;;;5011107;28;20536;-67
2021/03/05 01:45:45;;;;;;;13.13;9.55;;;9.00;99.90;;;;;;5010370;28;20381;-67
2021/03/05 01:48:17;;;;;;;13.20;8.80;;;8.50;99.90;;;;;;5010688;28;20393;-67
2021/03/05 01:51:04;;;;;;;13.02;8.60;;;8.10;99.90;;;;;;5010255;28;20396;-67
2021/03/05 01:53:30;;;;;;;11.95;8.07;;;8.30;99.90;;;;;;5010334;28;20396;-67
2021/03/05 01:55:57;;;;;;;11.43;8.27;;;8.10;99.90;;;;;;5010692;28;20722;-67
2021/03/05 01:58:23;;;;;;;12.68;9.10;;;9.10;99.90;;;;;;5010384;28;20404;-67
2021/03/05 02:00:52;;;;;;;11.05;8.70;;;8.30;99.90;;;;;;5010666;28;20511;-67
2021/03/05 02:03:18;;;;;;;10.40;8.55;;;8.40;99.90;;;;;;5011032;28;20419;-67
2021/03/05 02:05:44;;;;;;;8.68;7.78;;;10.00;99.90;;;;;;5010099;28;20796;-66
2021/03/05 02:08:13;;;;;;;11.80;8.37;;;8.10;99.90;;;;;;5010683;28;20387;-67
2021/03/05 02:10:40;;;;;;;10.30;7.80;;;8.40;99.90;;;;;;5014910;28;20388;-67
2021/03/05 02:13:06;;;;;;;10.33;7.40;;;8.00;99.90;;;;;;5030319;28;20516;-67
2021/03/05 02:15:33;;;;;;;12.90;8.00;;;8.30;99.90;;;;;;5029663;28;20466;-67
2021/03/05 02:18:34;;;;;;;11.75;7.80;;;8.60;99.90;;;;;;5030367;28;20433;-67
2021/03/05 02:21:06;;;;;;;11.10;8.30;;;8.20;99.90;;;;;;5030100;28;20807;-67
2021/03/05 02:24:05;;;;;;;9.48;7.25;;;8.20;99.90;;;;;;5029713;28;20402;-67
2021/03/05 02:27:08;;;;;;;10.05;7.43;;;8.00;99.90;;;;;;5030674;28;20398;-67
2021/03/05 02:30:07;;;;;;;10.80;8.35;;;8.20;99.90;;;;;;5033260;28;20413;-67
2021/03/05 02:32:50;;;;;;;10.55;8.13;;;7.80;99.90;;;;;;5018603;28;20451;-67
2021/03/05 02:35:17;;;;;;;9.90;7.70;;;8.20;99.90;;;;;;5014077;28;20392;-67
2021/03/05 02:37:45;;;;;;;10.17;7.30;;;8.50;99.90;;;;;;5013077;28;20486;-67
2021/03/05 02:40:35;;;;;;;8.95;6.60;;;8.10;99.90;;;;;;5014016;28;20385;-66
2021/03/05 02:43:04;;;;;;;9.20;7.22;;;8.90;99.90;;;;;;5013774;28;20392;-68
2021/03/05 02:45:33;;;;;;;8.00;6.28;;;8.10;99.90;;;;;;5013480;28;20508;-68
2021/03/05 02:48:20;;;;;;;8.90;7.20;;;10.00;99.90;;;;;;5013797;28;20416;-68
2021/03/05 02:50:54;;;;;;;9.40;6.80;;;9.60;99.90;;;;;;5013122;28;20514;-69
2021/03/05 02:53:24;;;;;;;7.78;6.15;;;8.70;99.90;;;;;;5013609;28;20377;-68
2021/03/05 02:55:52;;;;;;;8.20;6.40;;;9.00;99.90;;;;;;5013365;28;20460;-69
2021/03/05 02:58:21;;;;;;;7.10;5.47;;;7.90;99.90;;;;;;5013834;28;20869;-67
2021/03/05 03:00:49;;;;;;;8.30;5.90;;;7.90;99.90;;;;;;5012829;28;20739;-68
2021/03/05 03:03:17;;;;;;;5.95;5.35;;;7.80;99.90;;;;;;5013179;28;20891;-68
2021/03/05 03:05:44;;;;;;;7.78;6.25;;;8.10;99.90;;;;;;5012624;28;20380;-68
2021/03/05 03:08:10;;;;;;;8.63;6.80;;;8.30;99.90;;;;;;5013643;28;20416;-68
2021/03/05 03:10:37;;;;;;;8.02;6.00;;;8.30;99.90;;;;;;5012087;28;20476;-68
2021/03/05 03:13:07;;;;;;;7.15;5.45;;;8.60;99.90;;;;;;5012884;28;20416;-68
2021/03/05 03:15:34;;;;;;;6.22;5.15;;;8.00;99.90;;;;;;5012174;28;20408;-69
2021/03/05 03:18:03;;;;;;;7.85;6.13;;;7.80;99.90;;;;;;5013098;28;20389;-68
2021/03/05 03:20:29;;;;;;;7.40;6.30;;;9.00;99.90;;;;;;5012678;28;20432;-70
2021/03/05 03:22:55;;;;;;;8.40;6.50;;;8.10;99.90;;;;;;5013038;28;20438;-68
2021/03/05 03:25:22;;;;;;;8.30;6.60;;;8.10;99.90;;;;;;5013161;28;20464;-68
2021/03/05 03:27:49;;;;;;;10.82;8.20;;;8.00;99.90;;;;;;5011947;28;20463;-67
2021/03/05 03:30:16;;;;;;;9.70;7.22;;;8.20;99.90;;;;;;5013077;28;20413;-68
2021/03/05 03:32:42;;;;;;;8.55;7.30;;;7.50;99.90;;;;;;5011978;28;20454;-68
2021/03/05 03:35:10;;;;;;;10.73;8.20;;;9.10;99.90;;;;;;5020363;28;20559;-69
2021/03/05 03:37:37;;;;;;;11.55;8.20;;;7.60;99.90;;;;;;5016082;28;20896;-68
2021/03/05 03:40:10;;;;;;;12.38;7.97;;;8.00;99.90;;;;;;5000049;28;20471;-69
2021/03/05 03:42:36;;;;;;;12.52;8.95;;;7.50;99.90;;;;;;5000433;28;20435;-69
2021/03/05 03:45:04;;;;;;;10.48;8.02;;;8.20;99.90;;;;;;5001569;28;20495;-68
2021/03/05 03:47:30;;;;;;;11.80;8.47;;;7.50;99.90;;;;;;5015124;28;20404;-70
2021/03/05 03:49:59;;;;;;;10.35;8.35;;;7.40;99.90;;;;;;4998449;28;20397;-68
2021/03/05 03:52:27;;;;;;;11.98;8.43;;;7.30;99.90;;;;;;5002278;28;20397;-68
2021/03/05 03:54:56;;;;;;;13.40;9.52;;;7.00;99.90;;;;;;5002124;28;20397;-68
2021/03/05 03:57:25;;;;;;;12.50;9.50;;;8.90;99.90;;;;;;4998079;28;20464;-69
2021/03/05 03:59:53;;;;;;;12.20;9.17;;;7.50;99.90;;;;;;5002271;28;20472;-70
2021/03/05 04:02:24;;;;;;;12.57;9.52;;;7.60;99.90;;;;;;5001851;28;20380;-68
2021/03/05 04:04:50;;;;;;;12.30;8.90;;;7.40;99.90;;;;;;4998709;28;20453;-68
2021/03/05 04:07:19;;;;;;;13.65;10.15;;;7.00;99.90;;;;;;4998658;28;20392;-69
2021/03/05 04:09:46;;;;;;;12.20;10.20;;;7.60;99.90;;;;;;5002308;28;20392;-68
2021/03/05 04:12:12;;;;;;;13.40;11.07;;;8.10;99.90;;;;;;5001931;28;20385;-67
2021/03/05 04:14:38;;;;;;;12.80;10.05;;;7.10;99.90;;;;;;5000784;28;20411;-70
2021/03/05 04:17:05;;;;;;;13.02;10.85;;;7.60;99.90;;;;;;4999827;28;20395;-68
2021/03/05 04:19:32;;;;;;;15.43;11.30;;;6.90;99.90;;;;;;5002144;28;20427;-68
2021/03/05 04:21:58;;;;;;;14.30;10.87;;;7.00;99.90;;;;;;5000282;28;20401;-69
2021/03/05 04:24:23;;;;;;;13.23;11.30;;;6.90;99.90;;;;;;5003308;28;20416;-70
2021/03/05 04:26:49;;;;;;;15.70;11.65;;;7.80;99.90;;;;;;5000045;28;20401;-68
2021/03/05 04:29:14;;;;;;;15.02;11.00;;;7.60;99.90;;;;;;5001638;28;20838;-69
2021/03/05 04:31:40;;;;;;;15.52;11.82;;;8.00;99.90;;;;;;5001927;28;20389;-69
2021/03/05 04:34:05;;;;;;;15.48;11.55;;;8.00;99.90;;;;;;5001665;28;20389;-68
2021/03/05 04:36:31;;;;;;;16.10;12.52;;;7.40;99.90;;;;;;4997649;28;20393;-69
2021/03/05 04:38:57;;;;;;;15.73;12.43;;;6.80;99.90;;;;;;5000977;28;20784;-69
2021/03/05 04:41:22;;;;;;;16.13;12.53;;;6.70;99.90;;;;;;5001152;28;20389;-69
2021/03/05 04:43:48;;;;;;;17.17;12.93;;;7.40;99.90;;;;;;4999792;28;20848;-69
2021/03/05 04:46:14;;;;;;;15.33;12.20;;;6.60;99.90;;;;;;5000069;28;20413;-71
2021/03/05 04:48:40;;;;;;;15.20;12.43;;;7.80;99.90;;;;;;4999422;28;20459;-69
2021/03/05 04:51:05;;;;;;;15.98;12.98;;;6.80;99.90;;;;;;5000663;28;20486;-69
2021/03/05 04:53:31;;;;;;;18.38;13.60;;;6.70;99.90;;;;;;5002712;28;21300;-71
2021/03/05 04:55:57;;;;;;;16.45;12.18;;;6.70;99.90;;;;;;5000696;28;20532;-68
2021/03/05 04:58:23;;;;;;;16.90;12.43;;;6.80;99.90;;;;;;4999395;28;20408;-69
2021/03/05 05:00:48;;;;;;;17.85;12.45;;;8.70;99.90;;;;;;5001329;28;20404;-69
2021/03/05 05:03:14;;;;;;;16.40;12.50;;;8.00;99.90;;;;;;5000974;28;20432;-68
2021/03/05 05:05:40;;;;;;;18.50;13.60;;;6.40;99.90;;;;;;4998301;28;20405;-71
2021/03/05 05:08:06;;;;;;;17.37;13.30;;;6.20;99.90;;;;;;4999408;28;20377;-70
2021/03/05 05:10:33;;;;;;;16.30;12.18;;;6.40;99.90;;;;;;5000997;28;20813;-69
2021/03/05 05:12:58;;;;;;;17.70;13.47;;;6.60;99.90;;;;;;5000195;28;20396;-70
2021/03/05 05:15:24;;;;;;;17.60;14.13;;;6.30;99.90;;;;;;5002183;28;20393;-69
2021/03/05 05:17:50;;;;;;;17.13;13.30;;;6.30;99.90;;;;;;4998820;28;20746;-69
2021/03/05 05:20:16;;;;;;;17.30;12.65;;;7.60;99.90;;;;;;5007244;28;20519;-68
2021/03/05 05:22:41;;;;;;;16.50;12.38;;;6.30;99.90;;;;;;5011130;28;20421;-68
2021/03/05 05:25:08;;;;;;;16.30;13.40;;;7.00;99.90;;;;;;5010425;28;20413;-68
2021/03/05 05:27:34;;;;;;;16.45;13.57;;;6.20;99.90;;;;;;5010736;28;20401;-70
2021/03/05 05:30:00;;;;;;;18.35;13.40;;;5.90;99.90;;;;;;5008747;28;20445;-69
2021/03/05 05:32:25;;;;;;;15.75;12.07;;;7.40;99.90;;;;;;4997046;28;20437;-69
2021/03/05 05:34:51;;;;;;;14.95;11.38;;;7.50;99.90;;;;;;4989908;28;20414;-69
2021/03/05 05:37:17;;;;;;;16.38;12.23;;;7.90;99.90;;;;;;4990343;28;20385;-69
2021/03/05 05:39:43;;;;;;;15.20;11.30;;;6.20;99.90;;;;;;4989813;28;20466;-69
2021/03/05 05:42:09;;;;;;;15.60;11.20;;;7.30;99.90;;;;;;4990584;28;20503;-69
2021/03/05 05:44:36;;;;;;;17.83;11.55;;;5.80;99.90;;;;;;4990745;28;20497;-69
2021/03/05 05:47:02;;;;;;;14.15;10.07;;;6.90;99.90;;;;;;4989678;28;20873;-68
2021/03/05 05:49:29;;;;;;;18.67;11.63;;;6.10;99.90;;;;;;5005193;28;20917;-68
2021/03/05 05:52:00;;;;;;;14.10;10.80;;;5.70;99.90;;;;;;4989609;28;20485;-69
2021/03/05 05:54:27;;;;;;;14.68;10.02;;;6.30;99.90;;;;;;4990362;28;20800;-67
2021/03/05 05:56:53;;;;;;;15.75;10.50;;;7.00;99.90;;;;;;4989726;28;20665;-69
2021/03/05 05:59:23;;;;;;;15.88;10.32;;;7.50;99.90;;;;;;4990261;28;20424;-69
2021/03/05 06:01:50;;;;;;;13.32;9.00;;;6.10;99.90;;;;;;4991396;28;20379;-69
2021/03/05 06:04:16;;;;;;;15.17;9.27;;;7.20;99.90;;;;;;4994060;28;20473;-69
2021/03/05 06:06:42;;;;;;;16.00;10.00;;;5.70;99.90;;;;;;4993583;28;20391;-71
2021/03/05 06:09:08;;;;;;;14.10;10.27;;;6.60;99.90;;;;;;4994349;28;20402;-69
2021/03/05 06:11:38;;;;;;;12.63;9.67;;;6.20;99.90;;;;;;4994245;28;20405;-69
2021/03/05 06:14:06;;;;;;;12.60;8.25;;;5.80;99.90;;;;;;5008266;28;20413;-70
2021/03/05 06:16:32;;;;;;;14.40;9.65;;;5.60;99.90;;;;;;4994876;28;20807;-70
2021/03/05 06:18:59;;;;;;;13.35;9.65;;;5.60;99.90;;;;;;4993476;28;20391;-70
2021/03/05 06:21:37;;;;;;;15.50;9.57;;;6.30;99.90;;;;;;4994640;28;20387;-69
2021/03/05 06:24:05;;;;;;;14.43;9.27;;;7.40;99.90;;;;;;4992666;28;20449;-69
2021/03/05 06:26:55;;;;;;;21.08;12.43;;;5.90;99.90;;;;;;4994556;28;20394;-69
2021/03/05 06:29:28;;;;;;;13.68;9.20;;;5.90;99.90;;;;;;4994484;28;20570;-69
2021/03/05 06:31:59;;;;;;;13.52;8.73;;;5.80;99.90;;;;;;5001443;28;20722;-68
2021/03/05 06:34:26;;;;;;;14.80;8.82;;;5.70;99.90;;;;;;5013786;28;20428;-68
2021/03/05 06:37:06;;;;;;;13.57;9.02;;;6.80;99.90;;;;;;5013344;28;20734;-68
2021/03/05 06:39:34;;;;;;;12.32;7.90;;;6.90;99.90;;;;;;5013911;28;20392;-68
2021/03/05 06:42:08;;;;;;;11.93;8.80;;;6.50;99.90;;;;;;5013057;28;20380;-68
2021/03/05 06:44:36;;;;;;;14.02;8.75;;;5.90;99.90;;;;;;5013667;28;20796;-68
2021/03/05 06:47:09;;;;;;;12.57;7.90;;;7.00;99.90;;;;;;5012944;28;20522;-68
2021/03/05 06:49:35;;;;;;;12.52;8.60;;;6.30;99.90;;;;;;5013828;28;20389;-68
2021/03/05 06:52:01;;;;;;;11.75;8.38;;;6.20;99.90;;;;;;5013015;28;20377;-68
2021/03/05 06:54:33;;;;;;;11.03;7.93;;;6.10;99.90;;;;;;5013923;28;20403;-68
2021/03/05 06:56:59;;;;;;;12.27;7.50;;;5.90;99.90;;;;;;5013037;28;20400;-68
2021/03/05 06:59:25;;;;;;;10.70;7.23;;;6.30;99.90;;;;;;5013166;28;20498;-68
2021/03/05 07:01:58;;;;;;;13.70;8.27;;;5.90;99.90;;;;;;5012847;28;20476;-68
2021/03/05 07:04:35;;;;;;;11.90;7.70;;;6.10;99.90;;;;;;5013002;28;20466;-68
2021/03/05 07:07:06;;;;;;;12.85;7.80;;;6.00;99.90;;;;;;5003472;28;20393;-69
2021/03/05 07:09:47;;;;;;;11.63;7.78;;;6.00;99.90;;;;;;5005501;28;20425;-68
2021/03/05 07:12:17;;;;;;;12.05;7.88;;;5.70;99.90;;;;;;5022437;28;20912;-69
2021/03/05 07:14:59;;;;;;;10.55;7.82;;;6.40;99.90;;;;;;5007896;28;20447;-71
2021/03/05 07:17:26;;;;;;;11.85;7.95;;;6.10;99.90;;;;;;5008522;28;20381;-68
2021/03/05 07:19:54;;;;;;;9.52;6.90;;;6.10;99.90;;;;;;5008404;28;20388;-69
2021/03/05 07:22:23;;;;;;;13.27;7.30;;;7.50;99.90;;;;;;5016312;28;20893;-69
2021/03/05 07:24:50;;;;;;;12.35;6.78;;;5.40;99.90;;;;;;5003662;28;20475;-69
2021/03/05 07:27:19;;;;;;;12.25;7.10;;;5.50;99.90;;;;;;5009762;28;20450;-68
2021/03/05 07:29:45;;;;;;;13.32;7.00;;;6.40;99.90;;;;;;5008172;28;20412;-71
2021/03/05 07:32:31;;;;;;;11.15;7.22;;;5.40;99.90;;;;;;5009100;28;20395;-69
2021/03/05 07:35:05;;;;;;;12.15;7.55;;;6.10;99.90;;;;;;5001200;28;20393;-69
2021/03/05 07:37:59;;;;;;;11.90;7.22;;;5.40;99.90;;;;;;5016164;28;20407;-68
2021/03/05 07:40:26;;;;;;;13.00;7.18;;;5.30;99.90;;;;;;5015917;28;20877;-68
2021/03/05 07:42:55;;;;;;;11.73;7.18;;;6.80;99.90;;;;;;5008233;28;20451;-69
2021/03/05 07:45:20;;;;;;;11.67;7.80;;;5.30;99.90;;;;;;5009294;28;20415;-69
2021/03/05 07:47:48;;;;;;;14.73;7.78;;;5.30;99.90;;;;;;5023224;28;20769;-71
2021/03/05 07:50:15;;;;;;;13.82;8.60;;;6.20;99.90;;;;;;5008774;28;20412;-69
2021/03/05 07:52:42;;;;;;;13.18;8.18;;;5.40;99.90;;;;;;5009130;28;20476;-69
2021/03/05 07:55:08;;;;;;;11.55;7.57;;;;;;;;;;5007608;28;20457;-70
2021/03/05 07:57:34;;;;;;;14.18;8.60;;;5.00;99.90;;;;;;5008381;28;20389;-70
2021/03/05 08:00:01;;;;;;;10.80;6.90;;;6.90;99.90;;;;;;5008356;28;20933;-69
2021/03/05 08:03:00;;;;;;;12.57;7.93;;;5.10;99.90;;;;;;5008501;28;20428;-69
2021/03/05 08:05:41;;;;;;;11.05;7.65;;;5.20;99.90;;;;;;5009719;28;21527;-69
2021/03/05 08:08:23;;;;;;;10.82;8.73;;;5.60;99.90;;;;;;5007257;28;20389;-69
2021/03/05 08:10:55;;;;;;;11.52;8.23;;;5.60;99.90;;;;;;5007852;28;20515;-72
2021/03/05 08:13:54;;;;;;;12.85;8.55;;;5.70;99.90;;;;;;5007591;28;20451;-70
2021/03/05 08:16:26;;;;;;;10.93;7.93;;;5.50;99.90;;;;;;5008759;28;20467;-69
2021/03/05 08:19:14;;;;;;;11.32;7.50;;;5.30;99.90;;;;;;5007195;28;20412;-69
2021/03/05 08:21:56;;;;;;;11.35;8.13;;;5.40;99.90;;;;;;5011731;28;20876;-69
2021/03/05 08:24:29;;;;;;;13.90;8.30;;;5.50;99.90;;;;;;5008905;28;20428;-69
2021/03/05 08:27:02;;;;;;;13.27;9.38;;;6.50;99.90;;;;;;5008608;28;20816;-69
2021/03/05 08:29:54;;;;;;;13.13;8.68;;;6.30;99.90;;;;;;5008667;28;20424;-69
2021/03/05 08:32:34;;;;;;;11.85;8.50;;;5.60;99.90;;;;;;5006102;28;20869;-69
2021/03/05 08:35:29;;;;;;;11.68;7.90;;;5.40;99.90;;;;;;5007100;28;20432;-69
2021/03/05 08:38:04;;;;;;;13.80;8.95;;;5.70;99.90;;;;;;5004970;28;20400;-69
2021/03/05 08:41:02;;;;;;;12.40;8.93;;;5.90;99.90;;;;;;5004729;28;20435;-69
2021/03/05 08:43:30;;;;;;;13.60;9.05;;;5.70;99.90;;;;;;5011381;28;20432;-69
2021/03/05 08:46:04;;;;;;;10.70;8.50;;;5.90;99.90;;;;;;5011559;28;20406;-69
2021/03/05 08:48:41;;;;;;;13.15;8.88;;;6.00;99.90;;;;;;5007735;28;20464;-70
2021/03/05 08:51:10;;;;;;;13.13;8.73;;;6.20;99.90;;;;;;5006491;28;20393;-69
2021/03/05 08:53:43;;;;;;;13.90;9.65;;;5.70;99.90;;;;;;5007710;28;20397;-72
2021/03/05 08:56:10;;;;;;;14.20;8.73;;;5.70;99.90;;;;;;5010310;28;20383;-69
2021/03/05 08:58:36;;;;;;;11.68;8.10;;;5.30;99.90;;;;;;5007185;28;20428;-69
2021/03/05 09:01:03;;;;;;;12.10;7.75;;;5.70;99.90;;;;;;5023616;28;20451;-72
2021/03/05 09:03:28;;;;;;;12.83;8.93;;;6.10;99.90;;;;;;5008304;28;20500;-69
2021/03/05 09:05:54;;;;;;;11.73;7.55;;;7.10;99.90;;;;;;5008630;28;20440;-69
2021/03/05 09:08:25;;;;;;;10.35;7.53;;;6.70;99.90;;;;;;5007193;28;20424;-68
2021/03/05 09:11:03;;;;;;;12.77;8.40;;;6.00;99.90;;;;;;5006555;28;20389;-71
2021/03/05 09:13:34;;;;;;;12.50;9.60;;;5.20;99.90;;;;;;5007373;28;20472;-69
2021/03/05 09:16:02;;;;;;;14.77;9.85;;;5.50;99.90;;;;;;5025197;28;20884;-69
2021/03/05 09:18:30;;;;;;;12.52;8.63;;;6.10;99.90;;;;;;5006720;28;20393;-68
2021/03/05 09:21:01;;;;;;;12.13;8.70;;;7.50;99.90;;;;;;5006783;28;20388;-69
2021/03/05 09:23:37;;;;;;;14.88;8.90;;;6.70;99.90;;;;;;5007748;28;20423;-69
2021/03/05 09:26:14;;;;;;;13.30;8.70;;;6.80;99.90;;;;;;5008593;28;20737;-69
2021/03/05 09:28:42;;;;;;;11.70;8.52;;;6.80;99.90;;;;;;5007135;28;20757;-69
2021/03/05 09:31:10;;;;;;;13.60;9.50;;;6.20;99.90;;;;;;5005542;28;21084;-69
2021/03/05 09:33:42;;;;;;;13.30;8.48;;;7.00;99.90;;;;;;5025186;28;20746;-69
2021/03/05 09:36:12;;;;;;;13.23;8.50;;;6.50;99.90;;;;;;5008567;28;20420;-69
2021/03/05 09:38:40;;;;;;;14.98;8.65;;;6.50;99.90;;;;;;5010741;28;20393;-68
2021/03/05 09:41:10;;;;;;;14.38;8.77;;;6.90;99.90;;;;;;5010557;28;20468;-67
2021/03/05 09:43:36;;;;;;;11.75;8.60;;;7.60;99.90;;;;;;5011632;28;20452;-69
2021/03/05 09:46:27;;;;;;;13.57;8.83;;;6.40;99.90;;;;;;5010579;28;20419;-70
2021/03/05 09:48:54;;;;;;;13.13;8.90;;;6.50;99.90;;;;;;5009457;28;20772;-73
2021/03/05 09:51:20;;;;;;;13.02;8.75;;;6.40;99.90;;;;;;5023365;28;20456;-70
2021/03/05 09:53:53;;;;;;;12.32;9.07;;;6.10;99.90;;;;;;5011180;28;20962;-68
2021/03/05 09:56:21;;;;;;;15.43;9.63;;;7.50;99.90;;;;;;5011325;28;20861;-68
2021/03/05 09:59:03;;;;;;;13.68;8.60;;;6.70;99.90;;;;;;5010444;28;20396;-70
2021/03/05 10:01:33;;;;;;;11.88;8.60;;;6.00;99.90;;;;;;5011216;28;20381;-69
2021/03/05 10:04:02;;;;;;;12.27;8.65;;;8.30;99.90;;;;;;5008200;28;20813;-67
2021/03/05 10:06:29;;;;;;;12.60;8.20;;;7.20;99.90;;;;;;5011018;28;20456;-69
2021/03/05 10:09:15;;;;;;;11.73;8.80;;;6.60;99.90;;;;;;5010154;28;20385;-68
2021/03/05 10:11:42;;;;;;;11.85;8.02;;;6.50;99.90;;;;;;5010644;28;20388;-66
2021/03/05 10:14:10;;;;;;;11.45;7.70;;;7.70;99.90;;;;;;5010557;28;20789;-66
2021/03/05 10:16:37;;;;;;;12.35;7.40;;;6.70;99.90;;;;;;5011028;28;20396;-70
2021/03/05 10:19:12;;;;;;;12.35;8.13;;;6.80;99.90;;;;;;5009731;28;20393;-68
2021/03/05 10:21:53;;;;;;;10.75;7.43;;;6.70;99.90;;;;;;5014688;28;20385;-68
2021/03/05 10:24:24;;;;;;;11.20;7.77;;;5.20;99.90;;;;;;5014286;28;20531;-67
2021/03/05 10:29:50;;;;;;;12.48;8.90;;;6.90;99.90;;;;;;5014133;28;20431;-68
2021/03/05 10:32:42;;;;;;;12.00;8.27;;;6.70;99.90;;;;;;5009219;28;20896;-68
2021/03/05 10:35:09;;;;;;;10.48;7.28;;;6.50;99.90;;;;;;5009221;28;20399;-70
2021/03/05 10:37:36;;;;;;;11.60;7.95;;;6.60;99.90;;;;;;5005929;28;20761;-68
2021/03/05 10:40:04;;;;;;;10.65;7.07;;;7.20;99.90;;;;;;5009722;28;20395;-68
2021/03/05 10:42:30;;;;;;;12.40;8.35;;;7.10;99.90;;;;;;5025304;28;20396;-68
2021/03/05 10:44:56;;;;;;;13.03;8.30;;;7.20;99.90;;;;;;5024710;28;20424;-71
2021/03/05 10:47:22;;;;;;;11.10;7.50;;;7.20;99.90;;;;;;5009098;28;20748;-68
2021/03/05 10:49:49;;;;;;;11.88;7.97;;;7.30;99.90;;;;;;5010115;28;20427;-68
2021/03/05 10:52:18;;;;;;;10.65;8.32;;;7.70;99.90;;;;;;5009598;28;20387;-68
2021/03/05 10:54:44;;;;;;;13.15;8.90;;;7.20;99.90;;;;;;5010331;28;20400;-67
2021/03/05 10:57:17;;;;;;;11.00;8.82;;;7.30;99.90;;;;;;5009091;28;20482;-69
2021/03/05 10:59:44;;;;;;;17.02;9.95;;;7.40;99.90;;;;;;5010406;28;20404;-68
2021/03/05 11:02:09;;;;;;;11.30;9.10;;;7.30;99.90;;;;;;5009241;28;20389;-68
2021/03/05 11:04:35;;;;;;;13.23;9.05;;;6.60;99.90;;;;;;5010166;28;20427;-68
2021/03/05 11:07:04;;;;;;;13.93;8.80;;;7.40;99.90;;;;;;5008635;28;20393;-70
2021/03/05 11:09:30;;;;;;;13.45;8.70;;;7.50;99.90;;;;;;5009720;28;20519;-69
2021/03/05 11:11:56;;;;;;;13.35;9.38;;;7.60;99.90;;;;;;5009642;28;20420;-72
2021/03/05 11:14:23;;;;;;;10.93;8.25;;;7.30;99.90;;;;;;5024997;28;20455;-69
2021/03/05 11:16:49;;;;;;;11.85;8.25;;;6.70;99.90;;;;;;5009949;28;20416;-68
2021/03/05 11:19:15;;;;;;;12.63;8.52;;;7.10;99.90;;;;;;5008118;28;21074;-70
2021/03/05 11:21:41;;;;;;;11.23;7.55;;;6.50;99.90;;;;;;5009156;28;20408;-68
2021/03/05 11:24:07;;;;;;;11.27;8.20;;;6.60;99.90;;;;;;5024126;28;20912;-67
2021/03/05 11:26:33;;;;;;;10.85;7.60;;;6.70;99.90;;;;;;5009526;28;20926;-69
2021/03/05 11:28:59;;;;;;;11.52;7.53;;;6.60;99.90;;;;;;5008899;28;20480;-69
2021/03/05 11:31:25;;;;;;;11.67;7.53;;;6.30;99.90;;;;;;5009512;28;20452;-72
2021/03/05 11:33:51;;;;;;;11.68;7.82;;;6.60;99.90;;;;;;5011398;28;20747;-69
2021/03/05 11:36:19;;;;;;;10.98;7.70;;;7.80;99.90;;;;;;5002431;28;20460;-71
2021/03/05 11:38:47;;;;;;;10.90;7.88;;;8.40;99.90;;;;;;5007810;28;20764;-68
2021/03/05 11:41:14;;;;;;;10.48;7.85;;;7.40;99.90;;;;;;5004184;28;20394;-72
2021/03/05 11:43:50;;;;;;;11.55;7.70;;;7.00;99.90;;;;;;5008810;28;20420;-69
2021/03/05 11:46:18;;;;;;;11.75;7.25;;;7.00;99.90;;;;;;5010206;28;20389;-68
2021/03/05 11:48:44;;;;;;;11.30;8.07;;;7.50;99.90;;;;;;5009117;28;20431;-70
2021/03/05 11:51:10;;;;;;;10.35;7.65;;;6.90;99.90;;;;;;5007966;28;20404;-68
2021/03/05 11:53:37;;;;;;;13.85;7.15;;;6.80;99.90;;;;;;5008894;28;20393;-69
2021/03/05 11:56:04;;;;;;;10.77;7.47;;;6.90;99.90;;;;;;5007932;28;20412;-69
2021/03/05 11:58:30;;;;;;;9.90;7.10;;;6.70;99.90;;;;;;5020758;28;20779;-69
2021/03/05 12:00:55;;;;;;;8.80;6.03;;;6.90;99.90;;;;;;5023630;28;20395;-70
2021/03/05 12:03:21;;;;;;;9.37;6.67;;;6.80;99.90;;;;;;5006717;28;20750;-68
2021/03/05 12:05:47;;;;;;;8.57;6.53;;;7.60;99.90;;;;;;5010485;28;20392;-69
2021/03/05 12:08:12;;;;;;;11.15;7.32;;;7.40;99.90;;;;;;5009774;28;20377;-68
2021/03/05 12:10:38;;;;;;;8.40;6.32;;;6.80;99.90;;;;;;5008444;28;20977;-68
2021/03/05 12:13:05;;;;;;;8.38;6.32;;;6.80;99.90;;;;;;5007003;28;20381;-73
2021/03/05 12:15:31;;;;;;;8.77;6.20;;;6.80;99.90;;;;;;5008361;28;20388;-69
2021/03/05 12:17:56;;;;;;;9.13;6.68;;;7.00;99.90;;;;;;5008471;28;20474;-69
2021/03/05 12:20:22;;;;;;;7.93;6.30;;;7.20;99.90;;;;;;5005822;28;20412;-70
2021/03/05 12:22:48;;;;;;;10.98;6.90;;;7.00;99.90;;;;;;5007596;28;20392;-71
2021/03/05 12:25:14;;;;;;;11.48;7.05;;;6.90;99.90;;;;;;5020033;28;20414;-68
2021/03/05 12:27:40;;;;;;;10.55;7.40;;;7.70;99.90;;;;;;5008231;28;20512;-68
2021/03/05 12:30:06;;;;;;;11.95;7.60;;;7.20;99.90;;;;;;5007005;28;20946;-68
2021/03/05 12:32:32;;;;;;;9.70;7.20;;;7.00;99.90;;;;;;5022835;28;20412;-68
2021/03/05 12:34:57;;;;;;;10.30;7.35;;;7.50;99.90;;;;;;5007180;28;20433;-69
2021/03/05 12:37:23;;;;;;;8.68;6.40;;;8.60;99.90;;;;;;5006709;28;20413;-67
2021/03/05 12:39:49;;;;;;;9.80;6.60;;;7.70;99.90;;;;;;5007085;28;20385;-68
2021/03/05 12:42:14;;;;;;;9.55;6.65;;;7.90;99.90;;;;;;5007679;28;20385;-67
2021/03/05 12:44:40;;;;;;;9.93;6.63;;;7.50;99.90;;;;;;5008176;28;20420;-70
2021/03/05 12:47:06;;;;;;;9.93;6.40;;;7.60;99.90;;;;;;5006413;28;20381;-71
2021/03/05 12:49:32;;;;;;;9.07;6.53;;;7.30;99.90;;;;;;5009284;28;20396;-67
2021/03/05 12:51:57;;;;;;;9.50;5.87;;;8.40;99.90;;;;;;5008957;28;20392;-68
2021/03/05 12:54:23;;;;;;;8.27;5.97;;;8.20;99.90;;;;;;5006786;28;20868;-67
2021/03/05 12:56:48;;;;;;;11.00;6.60;;;7.50;99.90;;;;;;5009419;28;20877;-70
2021/03/05 12:59:14;;;;;;;7.13;5.30;;;8.60;99.90;;;;;;5006301;28;20389;-72
2021/03/05 13:01:40;;;;;;;7.60;5.00;;;8.00;99.90;;;;;;5007617;28;20414;-68